Terminal Aerodrome Forecast
Issued by NWS

Home | Current Version | Previous Version | Text Only | Print | Product List | Glossary On
Versions: 1 2 3 4 5 6 7 8 9 10 11 12 13 14 15 16 17 18 19 20 21 22 23
000
FTUS41 KILN 240521
TAFLUK
TAF
KLUK 240521Z 2406/2506 32008KT 6SM -DZ BR OVC009
     FM240900 30007KT P6SM OVC009
     FM241400 28006KT P6SM OVC012
     FM242100 27006KT P6SM OVC022
     FM250000 19004KT P6SM SCT025 BKN120=

USA.gov is the U.S. government's official web portal to all federal, state and local government web resources and services.